Terminal Aerodrome Forecast
Issued by NWS

Home | Current Version | Previous Version | Text Only | Print | Product List | Glossary On
Versions: 1 2 3 4 5 6 7 8 9 10 11 12 13 14 15 16 17 18 19 20 21 22 23 24
000
FTUS43 KGLD 280525
TAFMCK
TAF
KMCK 280525Z 2806/0106 17008KT P6SM OVC025
     FM281100 15009KT 3SM -SN OVC015
     FM281800 16014KT 5SM -SHSN OVC020
     FM282000 16012KT 5SM -SHSN OVC030=

USA.gov is the U.S. government's official web portal to all federal, state and local government web resources and services.